Terminal Aerodrome Forecast
Issued by NWS

Home | Current Version | Previous Version | Text Only | Print | Product List | Glossary Off
Versions: 1 2 3 4 5 6 7 8 9 10 11 12 13 14 15 16 17 18 19

808
FTUS43 KTOP 020520
TAFFOE
TAF
KFOE 020520Z 0206/0306 35006KT P6SM SCT015 OVC025
      TEMPO 0206/0210 SCT020 OVC035
     FM021600 34008KT P6SM VCSH SCT020 BKN035
     FM022000 34006KT P6SM BKN050=

USA.gov is the U.S. government's official web portal to all federal, state and local government web resources and services.